sensor_id;sensor_type;location;lat;lon;timestamp;temperature;humidity
45715;DHT22;31430;61.646;24.704;2022-09-28T00:02:00;0.00;99.90
45715;DHT22;31430;61.646;24.704;2022-09-28T00:04:25;0.10;99.90
45715;DHT22;31430;61.646;24.704;2022-09-28T00:06:51;0.10;99.90
45715;DHT22;31430;61.646;24.704;2022-09-28T00:09:16;0.20;99.90
45715;DHT22;31430;61.646;24.704;2022-09-28T00:11:42;0.30;99.90
45715;DHT22;31430;61.646;24.704;2022-09-28T00:14:08;0.20;99.90
45715;DHT22;31430;61.646;24.704;2022-09-28T00:16:37;0.30;99.90
45715;DHT22;31430;61.646;24.704;2022-09-28T00:19:03;0.30;99.90
45715;DHT22;31430;61.646;24.704;2022-09-28T00:21:32;0.30;99.90
45715;DHT22;31430;61.646;24.704;2022-09-28T00:24:00;0.40;99.90
45715;DHT22;31430;61.646;24.704;2022-09-28T00:26:55;0.40;99.90
45715;DHT22;31430;61.646;24.704;2022-09-28T00:29:27;0.30;99.90
45715;DHT22;31430;61.646;24.704;2022-09-28T00:31:58;0.30;99.90
45715;DHT22;31430;61.646;24.704;2022-09-28T00:34:31;0.30;99.90
45715;DHT22;31430;61.646;24.704;2022-09-28T00:36:59;0.20;99.90
45715;DHT22;31430;61.646;24.704;2022-09-28T00:39:25;0.20;99.90
45715;DHT22;31430;61.646;24.704;2022-09-28T00:41:51;0.20;99.90
45715;DHT22;31430;61.646;24.704;2022-09-28T00:47:02;0.20;99.90
45715;DHT22;31430;61.646;24.704;2022-09-28T00:55:08;0.30;99.90
45715;DHT22;31430;61.646;24.704;2022-09-28T00:57:37;0.40;99.90
45715;DHT22;31430;61.646;24.704;2022-09-28T01:00:04;0.50;99.90
45715;DHT22;31430;61.646;24.704;2022-09-28T01:02:30;0.60;99.90
45715;DHT22;31430;61.646;24.704;2022-09-28T01:04:58;0.60;99.90
45715;DHT22;31430;61.646;24.704;2022-09-28T01:07:25;0.70;99.90
45715;DHT22;31430;61.646;24.704;2022-09-28T01:09:51;0.70;99.90
45715;DHT22;31430;61.646;24.704;2022-09-28T01:12:18;0.80;99.90
45715;DHT22;31430;61.646;24.704;2022-09-28T01:14:44;0.80;99.90
45715;DHT22;31430;61.646;24.704;2022-09-28T01:17:14;0.80;99.90
45715;DHT22;31430;61.646;24.704;2022-09-28T01:28:18;1.10;99.90
45715;DHT22;31430;61.646;24.704;2022-09-28T01:31:12;1.10;99.90
45715;DHT22;31430;61.646;24.704;2022-09-28T01:33:49;1.20;99.90
45715;DHT22;31430;61.646;24.704;2022-09-28T01:36:29;1.20;99.90
45715;DHT22;31430;61.646;24.704;2022-09-28T01:39:06;1.20;99.90
45715;DHT22;31430;61.646;24.704;2022-09-28T01:41:34;1.20;99.90
45715;DHT22;31430;61.646;24.704;2022-09-28T01:44:09;1.30;99.90
45715;DHT22;31430;61.646;24.704;2022-09-28T01:46:41;1.30;99.90
45715;DHT22;31430;61.646;24.704;2022-09-28T01:49:24;1.30;99.90
45715;DHT22;31430;61.646;24.704;2022-09-28T01:54:41;1.30;99.90
45715;DHT22;31430;61.646;24.704;2022-09-28T01:59:43;1.40;99.90
45715;DHT22;31430;61.646;24.704;2022-09-28T02:02:18;1.40;99.90
45715;DHT22;31430;61.646;24.704;2022-09-28T02:04:56;1.40;99.90
45715;DHT22;31430;61.646;24.704;2022-09-28T02:07:38;1.40;99.90
45715;DHT22;31430;61.646;24.704;2022-09-28T02:10:09;1.50;99.90
45715;DHT22;31430;61.646;24.704;2022-09-28T02:12:47;1.60;99.90
45715;DHT22;31430;61.646;24.704;2022-09-28T02:15:22;1.70;99.90
45715;DHT22;31430;61.646;24.704;2022-09-28T02:17:50;1.70;99.90
45715;DHT22;31430;61.646;24.704;2022-09-28T02:20:16;1.80;99.90
45715;DHT22;31430;61.646;24.704;2022-09-28T02:22:44;1.80;99.90
45715;DHT22;31430;61.646;24.704;2022-09-28T02:25:42;1.80;99.90
45715;DHT22;31430;61.646;24.704;2022-09-28T02:28:10;1.80;99.90
45715;DHT22;31430;61.646;24.704;2022-09-28T02:30:38;1.90;99.90
45715;DHT22;31430;61.646;24.704;2022-09-28T02:33:23;1.80;99.90
45715;DHT22;31430;61.646;24.704;2022-09-28T02:35:49;1.90;99.90
45715;DHT22;31430;61.646;24.704;2022-09-28T02:38:15;1.90;99.90
45715;DHT22;31430;61.646;24.704;2022-09-28T02:40:45;2.00;99.90
45715;DHT22;31430;61.646;24.704;2022-09-28T02:43:15;2.00;99.90
45715;DHT22;31430;61.646;24.704;2022-09-28T02:46:26;2.10;99.90
45715;DHT22;31430;61.646;24.704;2022-09-28T02:52:12;2.20;99.90
45715;DHT22;31430;61.646;24.704;2022-09-28T02:57:59;2.20;99.90
45715;DHT22;31430;61.646;24.704;2022-09-28T03:00:30;2.30;99.90
45715;DHT22;31430;61.646;24.704;2022-09-28T03:03:30;2.30;99.90
45715;DHT22;31430;61.646;24.704;2022-09-28T03:06:12;2.40;99.90
45715;DHT22;31430;61.646;24.704;2022-09-28T03:08:50;2.40;99.90
45715;DHT22;31430;61.646;24.704;2022-09-28T03:11:23;2.50;99.90
45715;DHT22;31430;61.646;24.704;2022-09-28T03:13:51;2.50;99.90
45715;DHT22;31430;61.646;24.704;2022-09-28T03:16:18;2.50;99.90
45715;DHT22;31430;61.646;24.704;2022-09-28T03:18:44;2.50;99.90
45715;DHT22;31430;61.646;24.704;2022-09-28T03:21:10;2.50;99.90
45715;DHT22;31430;61.646;24.704;2022-09-28T03:23:36;2.60;99.90
45715;DHT22;31430;61.646;24.704;2022-09-28T03:26:02;2.60;99.90
45715;DHT22;31430;61.646;24.704;2022-09-28T03:28:28;2.60;99.90
45715;DHT22;31430;61.646;24.704;2022-09-28T03:30:54;2.60;99.90
45715;DHT22;31430;61.646;24.704;2022-09-28T03:33:20;2.70;99.90
45715;DHT22;31430;61.646;24.704;2022-09-28T03:35:47;2.70;99.90
45715;DHT22;31430;61.646;24.704;2022-09-28T03:38:14;2.70;99.90
45715;DHT22;31430;61.646;24.704;2022-09-28T03:40:39;2.70;99.90
45715;DHT22;31430;61.646;24.704;2022-09-28T03:43:05;2.70;99.90
45715;DHT22;31430;61.646;24.704;2022-09-28T03:45:30;2.80;99.90
45715;DHT22;31430;61.646;24.704;2022-09-28T03:47:56;2.70;99.90
45715;DHT22;31430;61.646;24.704;2022-09-28T03:50:22;2.80;99.90
45715;DHT22;31430;61.646;24.704;2022-09-28T03:52:48;2.90;99.90
45715;DHT22;31430;61.646;24.704;2022-09-28T03:55:13;2.90;99.90
45715;DHT22;31430;61.646;24.704;2022-09-28T03:57:39;2.90;99.90
45715;DHT22;31430;61.646;24.704;2022-09-28T04:00:05;2.90;99.90
45715;DHT22;31430;61.646;24.704;2022-09-28T04:02:30;3.00;99.90
45715;DHT22;31430;61.646;24.704;2022-09-28T04:04:57;3.00;99.90
45715;DHT22;31430;61.646;24.704;2022-09-28T04:07:23;3.00;99.90
45715;DHT22;31430;61.646;24.704;2022-09-28T04:09:49;3.10;99.90
45715;DHT22;31430;61.646;24.704;2022-09-28T04:12:14;3.10;99.90
45715;DHT22;31430;61.646;24.704;2022-09-28T04:14:40;3.20;99.90
45715;DHT22;31430;61.646;24.704;2022-09-28T04:17:06;3.20;99.90
45715;DHT22;31430;61.646;24.704;2022-09-28T04:19:32;3.20;99.90
45715;DHT22;31430;61.646;24.704;2022-09-28T04:21:57;3.20;99.90
45715;DHT22;31430;61.646;24.704;2022-09-28T04:24:23;3.10;99.90
45715;DHT22;31430;61.646;24.704;2022-09-28T04:26:49;3.20;99.90
45715;DHT22;31430;61.646;24.704;2022-09-28T04:29:14;3.20;99.90
45715;DHT22;31430;61.646;24.704;2022-09-28T04:31:50;3.20;99.90
45715;DHT22;31430;61.646;24.704;2022-09-28T04:34:18;3.30;99.90
45715;DHT22;31430;61.646;24.704;2022-09-28T04:36:45;3.30;99.90
45715;DHT22;31430;61.646;24.704;2022-09-28T04:39:12;3.30;99.90
45715;DHT22;31430;61.646;24.704;2022-09-28T04:41:39;3.40;99.90
45715;DHT22;31430;61.646;24.704;2022-09-28T04:44:05;3.40;99.90
45715;DHT22;31430;61.646;24.704;2022-09-28T04:46:30;3.40;99.90
45715;DHT22;31430;61.646;24.704;2022-09-28T04:48:56;3.50;99.90
45715;DHT22;31430;61.646;24.704;2022-09-28T04:51:22;3.50;99.90
45715;DHT22;31430;61.646;24.704;2022-09-28T04:53:48;3.50;99.90
45715;DHT22;31430;61.646;24.704;2022-09-28T04:56:15;3.60;99.90
45715;DHT22;31430;61.646;24.704;2022-09-28T04:58:41;3.70;99.90
45715;DHT22;31430;61.646;24.704;2022-09-28T05:01:12;3.70;99.90
45715;DHT22;31430;61.646;24.704;2022-09-28T05:03:39;3.80;99.90
45715;DHT22;31430;61.646;24.704;2022-09-28T05:06:05;3.90;99.90
45715;DHT22;31430;61.646;24.704;2022-09-28T05:08:34;4.10;99.90
45715;DHT22;31430;61.646;24.704;2022-09-28T05:11:05;4.20;99.90
45715;DHT22;31430;61.646;24.704;2022-09-28T05:13:33;4.30;99.90
45715;DHT22;31430;61.646;24.704;2022-09-28T05:16:00;4.40;99.90
45715;DHT22;31430;61.646;24.704;2022-09-28T05:18:26;4.60;99.90
45715;DHT22;31430;61.646;24.704;2022-09-28T05:20:52;4.60;99.90
45715;DHT22;31430;61.646;24.704;2022-09-28T05:23:18;4.80;99.90
45715;DHT22;31430;61.646;24.704;2022-09-28T05:25:44;4.90;99.90
45715;DHT22;31430;61.646;24.704;2022-09-28T05:28:10;5.30;99.90
45715;DHT22;31430;61.646;24.704;2022-09-28T05:30:36;5.40;99.90
45715;DHT22;31430;61.646;24.704;2022-09-28T05:33:02;5.50;99.90
45715;DHT22;31430;61.646;24.704;2022-09-28T05:35:29;5.50;99.90
45715;DHT22;31430;61.646;24.704;2022-09-28T05:37:55;5.60;99.90
45715;DHT22;31430;61.646;24.704;2022-09-28T05:40:21;5.80;99.90
45715;DHT22;31430;61.646;24.704;2022-09-28T05:42:46;6.00;99.90
45715;DHT22;31430;61.646;24.704;2022-09-28T05:45:12;6.10;99.90
45715;DHT22;31430;61.646;24.704;2022-09-28T05:47:39;6.30;99.90
45715;DHT22;31430;61.646;24.704;2022-09-28T05:50:07;6.60;99.90
45715;DHT22;31430;61.646;24.704;2022-09-28T05:52:33;6.80;99.90
45715;DHT22;31430;61.646;24.704;2022-09-28T05:54:59;6.90;99.90
45715;DHT22;31430;61.646;24.704;2022-09-28T05:57:24;7.00;99.90
45715;DHT22;31430;61.646;24.704;2022-09-28T05:59:50;7.20;99.90
45715;DHT22;31430;61.646;24.704;2022-09-28T06:02:16;7.20;99.90
45715;DHT22;31430;61.646;24.704;2022-09-28T06:04:41;7.30;99.90
45715;DHT22;31430;61.646;24.704;2022-09-28T06:07:07;7.40;99.90
45715;DHT22;31430;61.646;24.704;2022-09-28T06:09:33;7.60;99.90
45715;DHT22;31430;61.646;24.704;2022-09-28T06:11:58;7.70;99.90
45715;DHT22;31430;61.646;24.704;2022-09-28T06:14:24;7.60;99.90
45715;DHT22;31430;61.646;24.704;2022-09-28T06:16:50;7.70;99.90
45715;DHT22;31430;61.646;24.704;2022-09-28T06:19:16;7.80;99.90
45715;DHT22;31430;61.646;24.704;2022-09-28T06:21:42;7.80;99.90
45715;DHT22;31430;61.646;24.704;2022-09-28T06:24:08;7.80;99.90
45715;DHT22;31430;61.646;24.704;2022-09-28T06:26:33;7.90;99.90
45715;DHT22;31430;61.646;24.704;2022-09-28T06:28:59;7.90;99.90
45715;DHT22;31430;61.646;24.704;2022-09-28T06:31:25;8.00;99.90
45715;DHT22;31430;61.646;24.704;2022-09-28T06:33:54;8.00;99.90
45715;DHT22;31430;61.646;24.704;2022-09-28T06:36:20;8.00;99.90
45715;DHT22;31430;61.646;24.704;2022-09-28T06:38:46;8.00;99.90
45715;DHT22;31430;61.646;24.704;2022-09-28T06:41:12;8.10;99.90
45715;DHT22;31430;61.646;24.704;2022-09-28T06:43:38;8.30;99.90
45715;DHT22;31430;61.646;24.704;2022-09-28T06:46:05;8.30;99.90
45715;DHT22;31430;61.646;24.704;2022-09-28T06:48:32;8.10;99.90
45715;DHT22;31430;61.646;24.704;2022-09-28T06:50:59;8.20;99.90
45715;DHT22;31430;61.646;24.704;2022-09-28T06:53:26;8.20;99.90
45715;DHT22;31430;61.646;24.704;2022-09-28T06:55:53;8.40;99.90
45715;DHT22;31430;61.646;24.704;2022-09-28T06:58:19;8.30;99.90
45715;DHT22;31430;61.646;24.704;2022-09-28T07:00:46;8.50;99.90
45715;DHT22;31430;61.646;24.704;2022-09-28T07:03:15;8.50;99.90
45715;DHT22;31430;61.646;24.704;2022-09-28T07:05:43;8.60;99.90
45715;DHT22;31430;61.646;24.704;2022-09-28T07:08:10;8.70;99.90
45715;DHT22;31430;61.646;24.704;2022-09-28T07:10:44;8.80;99.90
45715;DHT22;31430;61.646;24.704;2022-09-28T07:13:11;8.80;99.90
45715;DHT22;31430;61.646;24.704;2022-09-28T07:15:38;8.80;99.90
45715;DHT22;31430;61.646;24.704;2022-09-28T07:18:05;8.60;99.90
45715;DHT22;31430;61.646;24.704;2022-09-28T07:20:32;8.70;99.90
45715;DHT22;31430;61.646;24.704;2022-09-28T07:23:00;8.90;99.90
45715;DHT22;31430;61.646;24.704;2022-09-28T07:25:26;8.80;99.90
45715;DHT22;31430;61.646;24.704;2022-09-28T07:27:57;8.90;99.90
45715;DHT22;31430;61.646;24.704;2022-09-28T07:30:29;8.70;99.90
45715;DHT22;31430;61.646;24.704;2022-09-28T07:32:57;8.80;99.90
45715;DHT22;31430;61.646;24.704;2022-09-28T07:35:23;8.80;99.90
45715;DHT22;31430;61.646;24.704;2022-09-28T07:37:59;9.00;99.90
45715;DHT22;31430;61.646;24.704;2022-09-28T07:40:26;8.90;99.90
45715;DHT22;31430;61.646;24.704;2022-09-28T07:43:11;9.00;99.90
45715;DHT22;31430;61.646;24.704;2022-09-28T07:45:42;8.90;99.90
45715;DHT22;31430;61.646;24.704;2022-09-28T07:48:08;8.90;99.90
45715;DHT22;31430;61.646;24.704;2022-09-28T07:50:34;8.90;99.90
45715;DHT22;31430;61.646;24.704;2022-09-28T07:52:59;8.90;99.90
45715;DHT22;31430;61.646;24.704;2022-09-28T07:55:25;8.90;99.90
45715;DHT22;31430;61.646;24.704;2022-09-28T07:57:57;8.90;99.90
45715;DHT22;31430;61.646;24.704;2022-09-28T08:00:29;9.00;99.90
45715;DHT22;31430;61.646;24.704;2022-09-28T08:03:00;9.10;99.90
45715;DHT22;31430;61.646;24.704;2022-09-28T08:05:27;9.10;99.90
45715;DHT22;31430;61.646;24.704;2022-09-28T08:07:57;9.10;99.90
45715;DHT22;31430;61.646;24.704;2022-09-28T08:10:24;9.20;99.90
45715;DHT22;31430;61.646;24.704;2022-09-28T08:12:57;9.20;99.90
45715;DHT22;31430;61.646;24.704;2022-09-28T08:15:25;9.20;99.90
45715;DHT22;31430;61.646;24.704;2022-09-28T08:17:51;9.30;99.90
45715;DHT22;31430;61.646;24.704;2022-09-28T08:20:17;9.20;99.90
45715;DHT22;31430;61.646;24.704;2022-09-28T08:23:06;9.30;99.90
45715;DHT22;31430;61.646;24.704;2022-09-28T08:25:33;9.20;99.90
45715;DHT22;31430;61.646;24.704;2022-09-28T08:28:03;9.20;99.90
45715;DHT22;31430;61.646;24.704;2022-09-28T08:30:30;9.30;99.90
45715;DHT22;31430;61.646;24.704;2022-09-28T08:32:56;9.60;99.90
45715;DHT22;31430;61.646;24.704;2022-09-28T08:35:22;9.70;99.90
45715;DHT22;31430;61.646;24.704;2022-09-28T08:37:51;9.70;99.90
45715;DHT22;31430;61.646;24.704;2022-09-28T08:40:21;10.00;99.90
45715;DHT22;31430;61.646;24.704;2022-09-28T08:42:56;9.90;99.90
45715;DHT22;31430;61.646;24.704;2022-09-28T08:45:26;9.90;99.90
45715;DHT22;31430;61.646;24.704;2022-09-28T08:48:13;10.00;99.90
45715;DHT22;31430;61.646;24.704;2022-09-28T08:51:03;9.90;99.90
45715;DHT22;31430;61.646;24.704;2022-09-28T08:53:44;10.30;99.90
45715;DHT22;31430;61.646;24.704;2022-09-28T08:56:17;10.10;99.90
45715;DHT22;31430;61.646;24.704;2022-09-28T08:58:59;10.00;99.90
45715;DHT22;31430;61.646;24.704;2022-09-28T09:01:32;10.10;99.90
45715;DHT22;31430;61.646;24.704;2022-09-28T09:04:02;10.20;99.90
45715;DHT22;31430;61.646;24.704;2022-09-28T09:09:34;10.30;99.90
45715;DHT22;31430;61.646;24.704;2022-09-28T09:20:00;10.00;99.90
45715;DHT22;31430;61.646;24.704;2022-09-28T09:25:06;10.10;99.90
45715;DHT22;31430;61.646;24.704;2022-09-28T09:30:12;10.00;99.90
45715;DHT22;31430;61.646;24.704;2022-09-28T09:33:10;9.80;99.90
45715;DHT22;31430;61.646;24.704;2022-09-28T09:35:56;10.00;99.90
45715;DHT22;31430;61.646;24.704;2022-09-28T09:38:55;10.00;99.90
45715;DHT22;31430;61.646;24.704;2022-09-28T09:49:20;10.20;99.90
45715;DHT22;31430;61.646;24.704;2022-09-28T09:54:27;10.20;99.90
45715;DHT22;31430;61.646;24.704;2022-09-28T09:59:26;10.00;99.90
45715;DHT22;31430;61.646;24.704;2022-09-28T10:02:00;10.10;99.90
45715;DHT22;31430;61.646;24.704;2022-09-28T10:04:30;10.00;99.90
45715;DHT22;31430;61.646;24.704;2022-09-28T10:07:03;10.20;99.90
45715;DHT22;31430;61.646;24.704;2022-09-28T10:09:35;10.20;99.90
45715;DHT22;31430;61.646;24.704;2022-09-28T10:12:02;10.10;99.90
45715;DHT22;31430;61.646;24.704;2022-09-28T10:14:29;10.00;99.90
45715;DHT22;31430;61.646;24.704;2022-09-28T10:16:55;10.10;99.90
45715;DHT22;31430;61.646;24.704;2022-09-28T10:19:30;10.10;99.90
45715;DHT22;31430;61.646;24.704;2022-09-28T10:21:58;10.10;99.90
45715;DHT22;31430;61.646;24.704;2022-09-28T10:24:40;9.80;99.90
45715;DHT22;31430;61.646;24.704;2022-09-28T10:27:12;9.70;99.90
45715;DHT22;31430;61.646;24.704;2022-09-28T10:29:59;9.80;99.90
45715;DHT22;31430;61.646;24.704;2022-09-28T10:32:39;9.60;99.90
45715;DHT22;31430;61.646;24.704;2022-09-28T10:35:26;9.40;99.90
45715;DHT22;31430;61.646;24.704;2022-09-28T10:43:05;9.40;99.90
45715;DHT22;31430;61.646;24.704;2022-09-28T10:45:35;9.70;99.90
45715;DHT22;31430;61.646;24.704;2022-09-28T10:48:12;9.70;99.90
45715;DHT22;31430;61.646;24.704;2022-09-28T10:50:39;9.80;99.90
45715;DHT22;31430;61.646;24.704;2022-09-28T10:53:17;9.80;99.90
45715;DHT22;31430;61.646;24.704;2022-09-28T10:56:05;9.80;99.90
45715;DHT22;31430;61.646;24.704;2022-09-28T10:58:35;9.70;99.90
45715;DHT22;31430;61.646;24.704;2022-09-28T11:01:04;9.70;99.90
45715;DHT22;31430;61.646;24.704;2022-09-28T11:06:26;9.60;99.90
45715;DHT22;31430;61.646;24.704;2022-09-28T11:08:58;9.50;99.90
45715;DHT22;31430;61.646;24.704;2022-09-28T11:11:25;9.40;99.90
45715;DHT22;31430;61.646;24.704;2022-09-28T11:13:59;9.20;99.90
45715;DHT22;31430;61.646;24.704;2022-09-28T11:16:30;9.30;99.90
45715;DHT22;31430;61.646;24.704;2022-09-28T11:18:58;9.40;99.90
45715;DHT22;31430;61.646;24.704;2022-09-28T11:21:29;9.30;99.90
45715;DHT22;31430;61.646;24.704;2022-09-28T11:24:04;9.50;99.90
45715;DHT22;31430;61.646;24.704;2022-09-28T11:26:56;9.50;99.90
45715;DHT22;31430;61.646;24.704;2022-09-28T11:29:25;9.40;99.90
45715;DHT22;31430;61.646;24.704;2022-09-28T11:31:59;9.30;99.90
45715;DHT22;31430;61.646;24.704;2022-09-28T11:34:33;9.40;99.90
45715;DHT22;31430;61.646;24.704;2022-09-28T11:40:13;9.50;99.90
45715;DHT22;31430;61.646;24.704;2022-09-28T11:43:05;9.50;99.90
45715;DHT22;31430;61.646;24.704;2022-09-28T11:45:39;9.80;99.90
45715;DHT22;31430;61.646;24.704;2022-09-28T11:48:12;9.90;99.90
45715;DHT22;31430;61.646;24.704;2022-09-28T11:50:51;9.80;99.90
45715;DHT22;31430;61.646;24.704;2022-09-28T11:58:56;10.20;99.90
45715;DHT22;31430;61.646;24.704;2022-09-28T12:01:32;10.40;99.90
45715;DHT22;31430;61.646;24.704;2022-09-28T12:04:09;10.20;99.90
45715;DHT22;31430;61.646;24.704;2022-09-28T12:06:50;10.30;99.90
45715;DHT22;31430;61.646;24.704;2022-09-28T12:09:24;10.50;99.90
45715;DHT22;31430;61.646;24.704;2022-09-28T12:11:59;10.50;99.90
45715;DHT22;31430;61.646;24.704;2022-09-28T12:14:37;10.50;99.90
45715;DHT22;31430;61.646;24.704;2022-09-28T12:17:28;10.30;99.90
45715;DHT22;31430;61.646;24.704;2022-09-28T12:25:24;10.50;99.90
45715;DHT22;31430;61.646;24.704;2022-09-28T12:31:07;10.40;99.90
45715;DHT22;31430;61.646;24.704;2022-09-28T12:33:34;10.40;99.90
45715;DHT22;31430;61.646;24.704;2022-09-28T12:53:25;10.40;99.90
45715;DHT22;31430;61.646;24.704;2022-09-28T12:56:04;10.50;99.90
45715;DHT22;31430;61.646;24.704;2022-09-28T12:58:37;10.10;99.90
45715;DHT22;31430;61.646;24.704;2022-09-28T13:04:11;10.10;99.90
45715;DHT22;31430;61.646;24.704;2022-09-28T13:07:00;9.70;99.90
45715;DHT22;31430;61.646;24.704;2022-09-28T13:09:35;10.00;99.90
45715;DHT22;31430;61.646;24.704;2022-09-28T13:12:10;10.20;99.90
45715;DHT22;31430;61.646;24.704;2022-09-28T13:15:21;10.00;99.90
45715;DHT22;31430;61.646;24.704;2022-09-28T13:17:47;10.20;99.90
45715;DHT22;31430;61.646;24.704;2022-09-28T13:20:37;9.80;99.90
45715;DHT22;31430;61.646;24.704;2022-09-28T13:23:22;9.90;99.90
45715;DHT22;31430;61.646;24.704;2022-09-28T13:25:58;9.80;99.90
45715;DHT22;31430;61.646;24.704;2022-09-28T13:28:25;9.90;99.90
45715;DHT22;31430;61.646;24.704;2022-09-28T13:30:54;9.90;99.90
45715;DHT22;31430;61.646;24.704;2022-09-28T13:33:37;10.00;99.90
45715;DHT22;31430;61.646;24.704;2022-09-28T13:38:49;9.70;99.90
45715;DHT22;31430;61.646;24.704;2022-09-28T13:41:22;9.70;99.90
45715;DHT22;31430;61.646;24.704;2022-09-28T13:46:38;9.80;99.90
45715;DHT22;31430;61.646;24.704;2022-09-28T14:00:26;9.40;99.90
45715;DHT22;31430;61.646;24.704;2022-09-28T14:05:49;9.40;99.90
45715;DHT22;31430;61.646;24.704;2022-09-28T14:08:38;9.30;99.90
45715;DHT22;31430;61.646;24.704;2022-09-28T14:11:42;9.30;99.90
45715;DHT22;31430;61.646;24.704;2022-09-28T14:16:45;9.30;99.90
45715;DHT22;31430;61.646;24.704;2022-09-28T14:19:27;9.30;99.90
45715;DHT22;31430;61.646;24.704;2022-09-28T14:30:48;9.10;99.90
45715;DHT22;31430;61.646;24.704;2022-09-28T14:33:28;9.10;99.90
45715;DHT22;31430;61.646;24.704;2022-09-28T14:38:45;9.10;99.90
45715;DHT22;31430;61.646;24.704;2022-09-28T14:41:37;9.20;99.90
45715;DHT22;31430;61.646;24.704;2022-09-28T14:44:09;9.00;99.90
45715;DHT22;31430;61.646;24.704;2022-09-28T14:46:40;9.00;99.90
45715;DHT22;31430;61.646;24.704;2022-09-28T14:55:07;9.00;99.90
45715;DHT22;31430;61.646;24.704;2022-09-28T14:57:15;9.00;99.90
45715;DHT22;31430;61.646;24.704;2022-09-28T14:59:42;9.00;99.90
45715;DHT22;31430;61.646;24.704;2022-09-28T15:04:40;8.90;99.90
45715;DHT22;31430;61.646;24.704;2022-09-28T15:07:25;8.80;99.90
45715;DHT22;31430;61.646;24.704;2022-09-28T15:09:55;9.00;99.90
45715;DHT22;31430;61.646;24.704;2022-09-28T15:12:27;8.90;99.90
45715;DHT22;31430;61.646;24.704;2022-09-28T15:14:56;8.90;99.90
45715;DHT22;31430;61.646;24.704;2022-09-28T15:17:28;8.80;99.90
45715;DHT22;31430;61.646;24.704;2022-09-28T15:22:46;8.80;99.90
45715;DHT22;31430;61.646;24.704;2022-09-28T15:25:21;8.70;99.90
45715;DHT22;31430;61.646;24.704;2022-09-28T15:27:54;8.70;99.90
45715;DHT22;31430;61.646;24.704;2022-09-28T15:30:25;8.60;99.90
45715;DHT22;31430;61.646;24.704;2022-09-28T15:32:52;8.60;99.90
45715;DHT22;31430;61.646;24.704;2022-09-28T15:35:23;8.50;99.90
45715;DHT22;31430;61.646;24.704;2022-09-28T15:37:52;8.60;99.90
45715;DHT22;31430;61.646;24.704;2022-09-28T15:42:47;8.50;99.90
45715;DHT22;31430;61.646;24.704;2022-09-28T15:47:39;8.40;99.90
45715;DHT22;31430;61.646;24.704;2022-09-28T15:50:26;8.40;99.90
45715;DHT22;31430;61.646;24.704;2022-09-28T15:55:29;8.40;99.90
45715;DHT22;31430;61.646;24.704;2022-09-28T16:00:37;8.40;99.90
45715;DHT22;31430;61.646;24.704;2022-09-28T16:05:49;8.40;99.90
45715;DHT22;31430;61.646;24.704;2022-09-28T16:11:11;8.30;99.90
45715;DHT22;31430;61.646;24.704;2022-09-28T16:16:25;8.30;99.90
45715;DHT22;31430;61.646;24.704;2022-09-28T16:18:52;8.30;99.90
45715;DHT22;31430;61.646;24.704;2022-09-28T16:21:30;8.20;99.90
45715;DHT22;31430;61.646;24.704;2022-09-28T16:24:00;8.20;99.90
45715;DHT22;31430;61.646;24.704;2022-09-28T16:26:35;8.30;99.90
45715;DHT22;31430;61.646;24.704;2022-09-28T16:29:42;8.40;99.90
45715;DHT22;31430;61.646;24.704;2022-09-28T16:37:36;8.20;99.90
45715;DHT22;31430;61.646;24.704;2022-09-28T16:40:02;8.20;99.90
45715;DHT22;31430;61.646;24.704;2022-09-28T16:42:28;8.10;99.90
45715;DHT22;31430;61.646;24.704;2022-09-28T16:44:55;8.00;99.90
45715;DHT22;31430;61.646;24.704;2022-09-28T16:47:23;8.10;99.90
45715;DHT22;31430;61.646;24.704;2022-09-28T16:49:49;8.10;99.90
45715;DHT22;31430;61.646;24.704;2022-09-28T16:52:16;8.00;99.90
45715;DHT22;31430;61.646;24.704;2022-09-28T16:55:01;7.90;99.90
45715;DHT22;31430;61.646;24.704;2022-09-28T16:57:44;7.90;99.90
45715;DHT22;31430;61.646;24.704;2022-09-28T17:00:21;7.80;99.90
45715;DHT22;31430;61.646;24.704;2022-09-28T17:02:48;7.90;99.90
45715;DHT22;31430;61.646;24.704;2022-09-28T17:05:18;7.90;99.90
45715;DHT22;31430;61.646;24.704;2022-09-28T17:07:47;8.00;99.90
45715;DHT22;31430;61.646;24.704;2022-09-28T17:10:15;8.00;99.90
45715;DHT22;31430;61.646;24.704;2022-09-28T17:12:42;8.00;99.90
45715;DHT22;31430;61.646;24.704;2022-09-28T17:15:07;7.90;99.90
45715;DHT22;31430;61.646;24.704;2022-09-28T17:17:33;7.90;99.90
45715;DHT22;31430;61.646;24.704;2022-09-28T17:20:00;8.00;99.90
45715;DHT22;31430;61.646;24.704;2022-09-28T17:22:26;7.80;99.90
45715;DHT22;31430;61.646;24.704;2022-09-28T17:24:51;7.90;99.90
45715;DHT22;31430;61.646;24.704;2022-09-28T17:27:18;7.90;99.90
45715;DHT22;31430;61.646;24.704;2022-09-28T17:29:45;7.80;99.90
45715;DHT22;31430;61.646;24.704;2022-09-28T17:32:16;7.90;99.90
45715;DHT22;31430;61.646;24.704;2022-09-28T17:34:43;8.00;99.90
45715;DHT22;31430;61.646;24.704;2022-09-28T17:37:12;7.90;99.90
45715;DHT22;31430;61.646;24.704;2022-09-28T17:39:38;7.90;99.90
45715;DHT22;31430;61.646;24.704;2022-09-28T17:42:04;7.80;99.90
45715;DHT22;31430;61.646;24.704;2022-09-28T17:44:30;7.80;99.90
45715;DHT22;31430;61.646;24.704;2022-09-28T17:46:56;7.90;99.90
45715;DHT22;31430;61.646;24.704;2022-09-28T17:49:21;7.70;99.90
45715;DHT22;31430;61.646;24.704;2022-09-28T17:51:47;7.70;99.90
45715;DHT22;31430;61.646;24.704;2022-09-28T17:54:14;7.70;99.90
45715;DHT22;31430;61.646;24.704;2022-09-28T17:56:44;7.60;99.90
45715;DHT22;31430;61.646;24.704;2022-09-28T17:59:13;7.60;99.90
45715;DHT22;31430;61.646;24.704;2022-09-28T18:01:40;7.70;99.90
45715;DHT22;31430;61.646;24.704;2022-09-28T18:04:07;7.70;99.90
45715;DHT22;31430;61.646;24.704;2022-09-28T18:06:34;7.80;99.90
45715;DHT22;31430;61.646;24.704;2022-09-28T18:09:02;7.80;99.90
45715;DHT22;31430;61.646;24.704;2022-09-28T18:11:29;7.80;99.90
45715;DHT22;31430;61.646;24.704;2022-09-28T18:13:54;7.80;99.90
45715;DHT22;31430;61.646;24.704;2022-09-28T18:16:20;7.90;99.90
45715;DHT22;31430;61.646;24.704;2022-09-28T18:18:47;7.90;99.90
45715;DHT22;31430;61.646;24.704;2022-09-28T18:21:13;8.00;99.90
45715;DHT22;31430;61.646;24.704;2022-09-28T18:23:39;8.00;99.90
45715;DHT22;31430;61.646;24.704;2022-09-28T18:26:12;7.90;99.90
45715;DHT22;31430;61.646;24.704;2022-09-28T18:28:39;7.90;99.90
45715;DHT22;31430;61.646;24.704;2022-09-28T18:31:10;7.90;99.90
45715;DHT22;31430;61.646;24.704;2022-09-28T18:33:36;7.90;99.90
45715;DHT22;31430;61.646;24.704;2022-09-28T18:36:03;7.90;99.90
45715;DHT22;31430;61.646;24.704;2022-09-28T18:38:28;7.90;99.90
45715;DHT22;31430;61.646;24.704;2022-09-28T18:40:54;7.90;99.90
45715;DHT22;31430;61.646;24.704;2022-09-28T18:43:20;7.80;99.90
45715;DHT22;31430;61.646;24.704;2022-09-28T18:45:46;7.70;99.90